createdAt,value
2019-05-15T00:01:08.520Z,102832.11
2019-05-15T00:03:39.226Z,102826.75
2019-05-15T00:06:08.448Z,102832.16
2019-05-15T00:08:39.609Z,102829.34
2019-05-15T00:11:09.199Z,102826.83
2019-05-15T00:13:38.980Z,102821.66
2019-05-15T00:16:08.460Z,102825.49
2019-05-15T00:18:39.061Z,102829.98
2019-05-15T00:21:09.278Z,102821.76
2019-05-15T00:23:39.310Z,102822.36
2019-05-15T00:26:09.235Z,102820.96
2019-05-15T00:28:38.903Z,102820.30
2019-05-15T00:31:08.967Z,102820.25
2019-05-15T00:33:39.317Z,102810.33
2019-05-15T00:36:08.635Z,102809.59
2019-05-15T00:38:39.036Z,102804.22
2019-05-15T00:41:09.387Z,102804.53
2019-05-15T00:43:38.653Z,102804.66
2019-05-15T00:46:09.231Z,102804.30
2019-05-15T00:48:39.946Z,102801.05
2019-05-15T00:51:08.426Z,102791.67
2019-05-15T00:53:39.199Z,102791.77
2019-05-15T00:56:08.847Z,102792.78
2019-05-15T00:58:39.958Z,102794.36
2019-05-15T01:01:08.356Z,102789.09
2019-05-15T01:03:38.810Z,102786.46
2019-05-15T01:06:08.342Z,102784.64
2019-05-15T01:08:39.091Z,102783.38
2019-05-15T01:11:09.126Z,102786.67
2019-05-15T01:13:38.949Z,102789.14
2019-05-15T01:16:10.160Z,102786.91
2019-05-15T01:18:42.421Z,102785.19
2019-05-15T01:21:10.862Z,102791.78
2019-05-15T01:23:39.294Z,102788.11
2019-05-15T01:26:08.278Z,102785.00
2019-05-15T01:28:38.426Z,102786.80
2019-05-15T01:31:08.510Z,102784.77
2019-05-15T01:33:39.177Z,102789.67
2019-05-15T01:36:08.542Z,102789.21
2019-05-15T01:38:38.914Z,102782.24
2019-05-15T01:41:09.503Z,102787.10
2019-05-15T01:43:38.132Z,102790.84
2019-05-15T01:46:08.447Z,102786.89
2019-05-15T01:48:38.737Z,102791.64
2019-05-15T01:51:09.403Z,102785.98
2019-05-15T01:53:38.552Z,102784.67
2019-05-15T01:56:08.374Z,102784.12
2019-05-15T01:58:38.278Z,102784.20
2019-05-15T02:01:08.127Z,102779.17
2019-05-15T02:03:38.572Z,102778.58
2019-05-15T02:06:08.246Z,102785.75
2019-05-15T02:08:39.354Z,102784.23
2019-05-15T02:11:09.068Z,102789.62
2019-05-15T02:13:38.882Z,102783.52
2019-05-15T02:16:08.974Z,102779.41
2019-05-15T02:18:39.159Z,102784.07
2019-05-15T02:21:10.316Z,102786.86
2019-05-15T02:23:38.788Z,102782.83
2019-05-15T02:26:07.997Z,102779.88
2019-05-15T02:28:38.402Z,102777.60
2019-05-15T02:31:10.557Z,102778.00
2019-05-15T02:33:40.092Z,102778.41
2019-05-15T02:36:09.808Z,102772.31
2019-05-15T02:38:41.133Z,102770.59
2019-05-15T02:41:09.975Z,102768.87
2019-05-15T02:43:39.058Z,102774.27
2019-05-15T02:46:10.461Z,102768.36
2019-05-15T02:48:41.012Z,102766.33
2019-05-15T02:51:09.695Z,102769.41
2019-05-15T02:53:39.531Z,102768.05
2019-05-15T02:56:09.280Z,102767.05
2019-05-15T02:58:39.787Z,102757.88
2019-05-15T03:01:09.256Z,102755.05
2019-05-15T03:03:38.742Z,102755.84
2019-05-15T03:06:09.970Z,102751.38
2019-05-15T03:08:39.884Z,102760.06
2019-05-15T03:11:09.801Z,102751.66
2019-05-15T03:13:39.659Z,102749.42
2019-05-15T03:16:10.133Z,102751.26
2019-05-15T03:18:40.706Z,102751.90
2019-05-15T03:21:09.536Z,102749.03
2019-05-15T03:23:40.352Z,102756.05
2019-05-15T03:26:10.245Z,102749.27
2019-05-15T03:28:39.556Z,102758.75
2019-05-15T03:31:30.453Z,102759.27
2019-05-15T03:33:45.079Z,102754.66
2019-05-15T03:36:13.514Z,102755.05
2019-05-15T03:38:39.549Z,102763.34
2019-05-15T03:41:10.270Z,102753.22
2019-05-15T03:43:39.485Z,102753.21
2019-05-15T03:46:09.030Z,102753.30
2019-05-15T03:48:40.340Z,102751.13
2019-05-15T03:51:09.172Z,102749.39
2019-05-15T03:53:40.090Z,102748.34
2019-05-15T03:56:09.653Z,102744.13
2019-05-15T03:58:40.153Z,102741.65
2019-05-15T04:01:27.719Z,102743.33
2019-05-15T04:03:39.204Z,102743.33
2019-05-15T04:06:09.980Z,102743.89
2019-05-15T04:08:39.119Z,102744.68
2019-05-15T04:11:09.212Z,102747.03
2019-05-15T04:13:39.813Z,102746.64
2019-05-15T04:16:10.351Z,102737.03
2019-05-15T04:18:39.653Z,102750.19
2019-05-15T04:21:09.173Z,102743.52
2019-05-15T04:23:39.678Z,102745.03
2019-05-15T04:26:09.283Z,102747.09
2019-05-15T04:28:41.822Z,102743.47
2019-05-15T04:31:09.769Z,102746.71
2019-05-15T04:33:39.876Z,102740.02
2019-05-15T04:36:09.737Z,102740.00
2019-05-15T04:38:39.442Z,102741.60
2019-05-15T04:41:09.731Z,102744.33
2019-05-15T04:43:41.438Z,102741.38
2019-05-15T04:46:09.776Z,102737.52
2019-05-15T04:48:39.876Z,102739.73
2019-05-15T04:51:09.721Z,102738.71
2019-05-15T04:53:39.504Z,102736.06
2019-05-15T04:56:09.852Z,102732.95
2019-05-15T04:58:39.410Z,102727.28
2019-05-15T05:01:09.333Z,102726.15
2019-05-15T05:03:39.356Z,102726.65
2019-05-15T05:06:09.928Z,102725.75
2019-05-15T05:08:39.785Z,102728.70
2019-05-15T05:11:09.747Z,102729.20
2019-05-15T05:13:39.171Z,102729.92
2019-05-15T05:16:09.564Z,102726.97
2019-05-15T05:18:41.798Z,102725.81
2019-05-15T05:21:10.651Z,102726.62
2019-05-15T05:23:39.083Z,102733.41
2019-05-15T05:26:10.547Z,102727.77
2019-05-15T05:28:38.649Z,102725.32
2019-05-15T05:31:08.338Z,102721.75
2019-05-15T05:33:38.150Z,102718.53
2019-05-15T05:36:07.950Z,102721.07
2019-05-15T05:38:38.828Z,102724.55
2019-05-15T05:41:08.176Z,102724.82
2019-05-15T05:43:38.385Z,102718.81
2019-05-15T05:46:09.190Z,102718.48
2019-05-15T05:48:38.344Z,102723.94
2019-05-15T05:51:09.401Z,102725.15
2019-05-15T05:53:38.398Z,102717.34
2019-05-15T05:56:08.850Z,102714.45
2019-05-15T05:58:39.032Z,102718.13
2019-05-15T06:01:09.627Z,102712.80
2019-05-15T06:03:38.746Z,102714.19
2019-05-15T06:06:09.701Z,102714.13
2019-05-15T06:08:39.730Z,102709.19
2019-05-15T06:11:09.866Z,102713.36
2019-05-15T06:13:38.502Z,102702.75
2019-05-15T06:16:09.718Z,102696.25
2019-05-15T06:18:38.792Z,102694.53
2019-05-15T06:21:09.165Z,102685.84
2019-05-15T06:23:44.106Z,102689.38
2019-05-15T06:26:09.608Z,102677.87
2019-05-15T06:28:40.673Z,102681.84
2019-05-15T06:31:09.112Z,102685.25
2019-05-15T06:33:38.387Z,102690.00
2019-05-15T06:36:08.878Z,102691.09
2019-05-15T06:38:39.406Z,102687.55
2019-05-15T06:41:08.702Z,102688.66
2019-05-15T06:43:38.959Z,102684.44
2019-05-15T06:46:09.191Z,102677.63
2019-05-15T06:48:38.156Z,102688.34
2019-05-15T06:51:11.850Z,102685.98
2019-05-15T06:53:40.243Z,102686.36
2019-05-15T06:56:08.703Z,102684.59
2019-05-15T06:58:38.519Z,102684.45
2019-05-15T07:01:08.723Z,102682.38
2019-05-15T07:03:39.310Z,102687.41
2019-05-15T07:06:09.471Z,102690.00
2019-05-15T07:08:38.409Z,102692.46
2019-05-15T07:11:08.865Z,102690.62
2019-05-15T07:13:38.292Z,102691.42
2019-05-15T07:16:08.069Z,102686.19
2019-05-15T07:18:39.029Z,102683.55
2019-05-15T07:21:10.399Z,102686.17
2019-05-15T07:23:38.742Z,102677.89
2019-05-15T07:26:09.408Z,102679.42
2019-05-15T07:28:38.118Z,102674.17
2019-05-15T07:31:11.303Z,102677.54
2019-05-15T07:33:43.298Z,102672.69
2019-05-15T07:36:08.348Z,102668.06
2019-05-15T07:38:39.169Z,102676.39
2019-05-15T07:41:10.356Z,102667.47
2019-05-15T07:43:38.394Z,102673.52
2019-05-15T07:46:08.331Z,102668.73
2019-05-15T07:48:38.421Z,102669.18
2019-05-15T07:51:11.544Z,102671.28
2019-05-15T07:53:38.386Z,102674.45
2019-05-15T07:56:11.699Z,102667.23
2019-05-15T07:58:38.870Z,102666.23
2019-05-15T08:01:09.943Z,102669.44
2019-05-15T08:03:55.098Z,102667.84
2019-05-15T08:06:08.926Z,102667.16
2019-05-15T08:08:39.430Z,102662.66
2019-05-15T08:11:17.582Z,102664.02
2019-05-15T08:13:41.643Z,102657.37
2019-05-15T08:16:10.080Z,102667.52
2019-05-15T08:18:39.440Z,102665.27
2019-05-15T08:21:08.979Z,102664.52
2019-05-15T08:23:39.080Z,102651.33
2019-05-15T08:26:08.799Z,102655.83
2019-05-15T08:28:41.174Z,102650.40
2019-05-15T08:31:10.765Z,102652.12
2019-05-15T08:33:39.166Z,102648.40
2019-05-15T08:36:19.308Z,102656.59
2019-05-15T08:38:45.854Z,102652.28
2019-05-15T08:41:18.501Z,102648.01
2019-05-15T08:43:48.643Z,102648.77
2019-05-15T08:46:18.779Z,102644.17
2019-05-15T08:48:49.094Z,102646.20
2019-05-15T08:51:19.431Z,102641.59
2019-05-15T08:53:48.782Z,102637.40
2019-05-15T08:56:19.830Z,102643.61
2019-05-15T08:58:52.116Z,102637.72
2019-05-15T09:01:22.980Z,102632.67
2019-05-15T09:03:51.406Z,102632.17
2019-05-15T09:06:22.968Z,102631.48
2019-05-15T09:08:50.044Z,102626.79
2019-05-15T09:11:19.221Z,102624.94
2019-05-15T09:13:53.654Z,102618.34
2019-05-15T09:16:18.633Z,102612.23
2019-05-15T09:18:48.504Z,102615.97
2019-05-15T09:21:20.959Z,102609.27
2019-05-15T09:23:50.352Z,102605.86
2019-05-15T09:26:23.025Z,102616.00
2019-05-15T09:28:51.068Z,102607.77
2019-05-15T09:31:22.972Z,102604.55
2019-05-15T09:33:55.650Z,102599.51
2019-05-15T09:36:24.657Z,102594.34
2019-05-15T09:38:53.104Z,102590.98
2019-05-15T09:41:21.522Z,102593.73
2019-05-15T09:43:49.987Z,102584.17
2019-05-15T09:46:23.097Z,102580.84
2019-05-15T09:48:52.245Z,102582.19
2019-05-15T09:51:24.680Z,102581.36
2019-05-15T09:53:52.376Z,102578.98
2019-05-15T09:56:20.747Z,102573.22
2019-05-15T09:58:53.195Z,102566.41
2019-05-15T10:01:21.609Z,102556.09
2019-05-15T10:03:53.842Z,102552.61
2019-05-15T10:06:22.250Z,102563.15
2019-05-15T10:08:53.320Z,102563.00
2019-05-15T10:11:21.761Z,102561.12
2019-05-15T10:13:50.180Z,102561.30
2019-05-15T10:16:19.846Z,102551.09
2019-05-15T10:18:50.755Z,102549.39
2019-05-15T10:21:18.902Z,102546.68
2019-05-15T10:23:49.070Z,102544.81
2019-05-15T10:26:31.953Z,102548.00
2019-05-15T10:29:09.752Z,102544.79
2019-05-15T10:31:41.085Z,102535.00
2019-05-15T10:34:10.421Z,102533.24
2019-05-15T10:36:38.878Z,102352.89
2019-05-15T10:39:08.894Z,102526.48
2019-05-15T10:41:39.825Z,102521.60
2019-05-15T10:44:11.270Z,102512.28
2019-05-15T10:46:39.683Z,102508.76
2019-05-15T10:49:08.747Z,102498.75
2019-05-15T10:51:39.622Z,102499.36
2019-05-15T10:54:08.559Z,102496.81
2019-05-15T10:56:38.608Z,102498.91
2019-05-15T10:59:08.560Z,102503.16
2019-05-15T11:01:38.725Z,102492.35
2019-05-15T11:04:09.074Z,102492.69
2019-05-15T11:06:39.997Z,102488.56
2019-05-15T11:09:08.766Z,102491.16
2019-05-15T11:11:37.132Z,102485.83
2019-05-15T11:14:05.621Z,102480.68
2019-05-15T11:16:34.051Z,102482.66
2019-05-15T11:19:02.460Z,102481.49
2019-05-15T11:21:30.882Z,102482.73
2019-05-15T11:24:01.985Z,102475.50
2019-05-15T11:26:33.679Z,102473.30
2019-05-15T11:29:03.130Z,102471.68
2019-05-15T11:31:31.581Z,102474.02
2019-05-15T11:34:06.014Z,102465.96
2019-05-15T11:36:38.621Z,102451.83
2019-05-15T11:39:08.429Z,102464.94
2019-05-15T11:41:38.721Z,102460.52
2019-05-15T11:44:07.276Z,102464.54
2019-05-15T11:46:35.709Z,102454.03
2019-05-15T11:49:04.339Z,102450.55
2019-05-15T11:51:35.347Z,102457.86
2019-05-15T11:54:03.741Z,102460.40
2019-05-15T11:56:33.210Z,102460.58
2019-05-15T11:59:01.761Z,102455.99
2019-05-15T12:01:30.213Z,102454.18
2019-05-15T12:04:01.414Z,102451.78
2019-05-15T12:06:34.517Z,102452.77
2019-05-15T12:09:03.615Z,102456.84
2019-05-15T12:11:37.028Z,102452.33
2019-05-15T12:14:09.173Z,102451.12
2019-05-15T12:16:40.351Z,102451.31
2019-05-15T12:19:13.871Z,102446.41
2019-05-15T12:21:39.773Z,102444.45
2019-05-15T12:24:10.757Z,102441.03
2019-05-15T12:26:43.139Z,102442.05
2019-05-15T12:29:15.619Z,102436.00
2019-05-15T12:31:45.727Z,102438.34
2019-05-15T12:34:18.918Z,102434.34
2019-05-15T12:36:57.243Z,102428.80
2019-05-15T12:39:21.990Z,102430.33
2019-05-15T12:59:44.729Z,102424.98
2019-05-15T13:02:12.983Z,102427.00
2019-05-15T13:04:41.961Z,102438.25
2019-05-15T13:07:16.365Z,102429.00
2019-05-15T13:09:41.015Z,102429.70
2019-05-15T13:12:09.521Z,102424.81
2019-05-15T13:14:38.903Z,102420.16
2019-05-15T13:17:07.457Z,102418.91
2019-05-15T13:19:38.614Z,102426.73
2019-05-15T13:22:17.591Z,102411.88
2019-05-15T13:24:48.329Z,102413.05
2019-05-15T13:27:18.248Z,102410.79
2019-05-15T13:29:48.634Z,102414.74
2019-05-15T13:32:18.150Z,102417.84
2019-05-15T13:34:48.775Z,102419.84
2019-05-15T13:37:26.832Z,102414.80
2019-05-15T13:39:48.734Z,102383.03
2019-05-15T13:42:19.575Z,102411.13
2019-05-15T13:44:48.000Z,102404.89
2019-05-15T13:47:17.750Z,102413.17
2019-05-15T13:49:48.026Z,102417.16
2019-05-15T13:52:20.301Z,102407.59
2019-05-15T13:54:48.708Z,102406.74
2019-05-15T13:57:18.214Z,102403.30
2019-05-15T13:59:48.363Z,102415.12
2019-05-15T14:02:18.725Z,102408.45
2019-05-15T14:04:51.089Z,102405.27
2019-05-15T14:07:19.754Z,102408.25
2019-05-15T14:09:48.435Z,102403.88
2019-05-15T14:12:18.870Z,102403.55
2019-05-15T14:14:50.269Z,102395.01
2019-05-15T14:17:17.816Z,102407.95
2019-05-15T14:19:48.438Z,102409.09
2019-05-15T14:22:16.368Z,102404.06
2019-05-15T14:24:44.781Z,102406.08
2019-05-15T14:27:13.209Z,102392.31
2019-05-15T14:29:41.792Z,102404.39
2019-05-15T14:32:10.220Z,102403.22
2019-05-15T14:34:38.646Z,102403.37
2019-05-15T14:37:08.759Z,102404.06
2019-05-15T14:39:41.329Z,102405.58
2019-05-15T14:42:10.106Z,102404.72
2019-05-15T14:44:38.956Z,102404.72
2019-05-15T14:47:08.879Z,102408.25
2019-05-15T14:49:44.803Z,102414.13
2019-05-15T14:52:09.456Z,102408.25
2019-05-15T14:54:38.508Z,102407.59
2019-05-15T14:57:08.701Z,102408.08
2019-05-15T14:59:41.472Z,102404.06
2019-05-15T15:02:09.912Z,102395.98
2019-05-15T15:04:39.140Z,102397.85
2019-05-15T15:07:08.905Z,102416.31
2019-05-15T15:09:38.438Z,102405.56
2019-05-15T15:12:09.376Z,102400.03
2019-05-15T15:14:38.081Z,102390.11
2019-05-15T15:17:06.517Z,102405.73
2019-05-15T15:19:34.929Z,102404.89
2019-05-15T15:22:03.438Z,102407.52
2019-05-15T15:24:32.001Z,102399.63
2019-05-15T15:27:00.424Z,102407.75
2019-05-15T15:29:28.888Z,102401.38
2019-05-15T15:31:58.957Z,102407.25
2019-05-15T15:34:28.250Z,102408.86
2019-05-15T15:36:57.959Z,102421.66
2019-05-15T15:39:28.102Z,102408.20
2019-05-15T15:41:57.853Z,102407.94
2019-05-15T15:44:28.162Z,102403.44
2019-05-15T15:46:58.921Z,102407.11
2019-05-15T15:49:27.903Z,102403.09
2019-05-15T15:51:58.131Z,102397.73
2019-05-15T15:54:28.121Z,102394.95
2019-05-15T15:56:56.700Z,102381.88
2019-05-15T15:59:25.091Z,102382.61
2019-05-15T16:01:54.498Z,102390.77
2019-05-15T16:04:24.019Z,102380.92
2019-05-15T16:06:53.524Z,102384.56
2019-05-15T16:09:22.110Z,102381.88
2019-05-15T16:11:50.557Z,102375.30
2019-05-15T16:14:20.794Z,102376.90
2019-05-15T16:16:51.567Z,102373.83
2019-05-15T16:19:19.999Z,102378.16
2019-05-15T16:21:49.186Z,102377.35
2019-05-15T16:24:21.456Z,102379.16
2019-05-15T16:26:51.766Z,102369.13
2019-05-15T16:29:20.199Z,102369.90
2019-05-15T16:31:49.215Z,102362.19
2019-05-15T16:34:21.436Z,102358.80
2019-05-15T16:36:49.855Z,102355.71
2019-05-15T16:39:28.615Z,102350.06
2019-05-15T16:41:59.191Z,102354.41
2019-05-15T16:44:29.296Z,102347.47
2019-05-15T16:46:58.900Z,102348.80
2019-05-15T16:49:28.467Z,102353.73
2019-05-15T16:52:04.880Z,102349.27
2019-05-15T16:54:33.306Z,102347.14
2019-05-15T16:57:05.863Z,102342.23
2019-05-15T16:59:35.854Z,102343.18
2019-05-15T17:02:04.704Z,102346.95
2019-05-15T17:04:33.131Z,102344.36
2019-05-15T17:07:02.633Z,102311.17
2019-05-15T17:09:33.222Z,102344.22
2019-05-15T17:12:02.052Z,102342.33
2019-05-15T17:14:30.463Z,102344.99
2019-05-15T17:16:58.955Z,102343.55
2019-05-15T17:19:29.851Z,102346.23
2019-05-15T17:21:58.822Z,102352.33
2019-05-15T17:24:27.510Z,102354.75
2019-05-15T17:26:55.928Z,102346.67
2019-05-15T17:29:24.614Z,102335.12
2019-05-15T17:31:53.080Z,102333.70
2019-05-15T17:34:21.572Z,102327.03
2019-05-15T17:36:52.878Z,102328.64
2019-05-15T17:39:37.736Z,102326.04
2019-05-15T17:42:05.851Z,102328.31
2019-05-15T17:44:38.231Z,102315.86
2019-05-15T17:47:09.450Z,102319.91
2019-05-15T17:49:38.507Z,102321.52
2019-05-15T17:52:08.896Z,102312.28
2019-05-15T17:54:38.039Z,102321.77
2019-05-15T17:57:09.218Z,102315.05
2019-05-15T17:59:40.976Z,102310.30
2019-05-15T18:02:09.400Z,102312.25
2019-05-15T18:04:38.724Z,102306.80
2019-05-15T18:07:08.653Z,102305.23
2019-05-15T18:09:48.379Z,102306.84
2019-05-15T18:12:12.322Z,102313.61
2019-05-15T18:14:43.704Z,102324.22
2019-05-15T18:17:12.233Z,102325.06
2019-05-15T18:19:40.680Z,102328.06
2019-05-15T18:22:09.150Z,102322.16
2019-05-15T18:24:39.175Z,102320.48
2019-05-15T18:27:08.778Z,102312.05
2019-05-15T18:29:39.661Z,102314.36
2019-05-15T18:32:12.672Z,102315.19
2019-05-15T18:34:41.111Z,102321.70
2019-05-15T18:37:09.529Z,102320.93
2019-05-15T18:39:42.678Z,102323.80
2019-05-15T18:42:11.538Z,102316.73
2019-05-15T18:44:39.986Z,102326.36
2019-05-15T18:47:08.715Z,102320.66
2019-05-15T18:49:38.131Z,102327.55
2019-05-15T18:52:08.632Z,102325.08
2019-05-15T18:54:40.593Z,102328.93
2019-05-15T18:57:08.601Z,102325.67
2019-05-15T18:59:37.095Z,102325.81
2019-05-15T19:02:08.491Z,102332.16
2019-05-15T19:04:38.265Z,102329.36
2019-05-15T19:07:08.857Z,102335.73
2019-05-15T19:09:38.657Z,102338.84
2019-05-15T19:12:09.212Z,102340.17
2019-05-15T19:14:39.537Z,102329.86
2019-05-15T19:17:08.210Z,102332.42
2019-05-15T19:19:38.462Z,102334.61
2019-05-15T19:22:07.891Z,102333.06
2019-05-15T19:24:39.932Z,102323.09
2019-05-15T19:27:07.988Z,102336.59
2019-05-15T19:29:37.801Z,102328.34
2019-05-15T19:32:10.882Z,102332.23
2019-05-15T19:34:41.055Z,102335.84
2019-05-15T19:37:10.273Z,102343.89
2019-05-15T19:39:41.217Z,102344.06
2019-05-15T19:42:09.640Z,102342.50
2019-05-15T19:44:39.839Z,102338.78
2019-05-15T19:47:08.313Z,102342.11
2019-05-15T19:49:37.856Z,102347.33
2019-05-15T19:52:08.404Z,102339.18
2019-05-15T19:54:39.019Z,102336.67
2019-05-15T19:57:08.034Z,102343.27
2019-05-15T19:59:39.789Z,102338.91
2019-05-15T20:02:09.288Z,102341.58
2019-05-15T20:04:38.554Z,102335.66
2019-05-15T20:07:07.998Z,102341.72
2019-05-15T20:09:38.500Z,102341.31
2019-05-15T20:12:09.054Z,102342.03
2019-05-15T20:14:38.281Z,102336.73
2019-05-15T20:17:08.105Z,102337.31
2019-05-15T20:19:48.946Z,102336.98
2019-05-15T20:22:10.484Z,102336.69
2019-05-15T20:24:38.898Z,102335.06
2019-05-15T20:27:08.507Z,102339.03
2019-05-15T20:29:38.324Z,102336.54
2019-05-15T20:32:06.945Z,102337.26
2019-05-15T20:34:37.784Z,102333.62
2019-05-15T20:37:05.573Z,102333.98
2019-05-15T20:39:33.996Z,102327.05
2019-05-15T20:42:02.427Z,102334.38
2019-05-15T20:44:38.026Z,102338.83
2019-05-15T20:47:08.264Z,102331.84
2019-05-15T20:49:37.974Z,102337.92
2019-05-15T20:52:06.385Z,102333.59
2019-05-15T20:54:38.744Z,102333.93
2019-05-15T20:57:11.407Z,102340.62
2019-05-15T20:59:45.032Z,102336.49
2019-05-15T21:02:15.535Z,102329.91
2019-05-15T21:04:46.605Z,102327.33
2019-05-15T21:07:27.588Z,102328.45
2019-05-15T21:09:58.762Z,102326.52
2019-05-15T21:12:29.375Z,102318.80
2019-05-15T21:15:09.302Z,102313.53
2019-05-15T21:17:57.790Z,102321.14
2019-05-15T21:20:18.149Z,102322.38
2019-05-15T21:22:49.354Z,102322.59
2019-05-15T21:25:20.347Z,102321.32
2019-05-15T21:27:49.145Z,102317.09
2019-05-15T21:30:19.959Z,102320.23
2019-05-15T21:32:50.716Z,102316.73
2019-05-15T21:35:19.203Z,102315.27
2019-05-15T21:38:02.236Z,102300.56
2019-05-15T21:40:29.217Z,102311.55
2019-05-15T21:43:00.583Z,102318.67
2019-05-15T21:45:31.492Z,102316.15
2019-05-15T21:48:03.017Z,102299.36
2019-05-15T21:50:30.087Z,102304.03
2019-05-15T21:53:11.009Z,102310.09
2019-05-15T21:55:44.355Z,102305.88
2019-05-15T21:58:18.608Z,102299.36
2019-05-15T22:00:50.801Z,102292.34
2019-05-15T22:03:22.583Z,102306.83
2019-05-15T22:05:52.004Z,102307.34
2019-05-15T22:08:22.717Z,102302.39
2019-05-15T22:10:54.113Z,102296.47
2019-05-15T22:13:22.341Z,102288.49
2019-05-15T22:15:50.847Z,102283.27
2019-05-15T22:18:21.310Z,102291.37
2019-05-15T22:20:55.748Z,102286.70
2019-05-15T22:23:24.035Z,102282.95
2019-05-15T22:25:53.831Z,102276.70
2019-05-15T22:28:27.977Z,102265.94
2019-05-15T22:30:59.964Z,102264.60
2019-05-15T22:33:28.578Z,102256.77
2019-05-15T22:35:59.252Z,102248.88
2019-05-15T22:38:28.545Z,102246.86
2019-05-15T22:41:00.964Z,102247.28
2019-05-15T22:43:35.384Z,102249.84
2019-05-15T22:46:05.193Z,102241.14
2019-05-15T22:48:33.647Z,102240.67
2019-05-15T22:51:02.327Z,102235.86
2019-05-15T22:53:38.174Z,102233.56
2019-05-15T22:56:06.453Z,102237.69
2019-05-15T22:58:35.968Z,102238.52
2019-05-15T23:01:09.217Z,102245.52
2019-05-15T23:03:39.457Z,102240.36
2019-05-15T23:06:14.478Z,102239.40
2019-05-15T23:08:41.889Z,102241.22
2019-05-15T23:11:10.351Z,102235.41
2019-05-15T23:13:39.055Z,102231.79
2019-05-15T23:16:07.508Z,102234.91
2019-05-15T23:18:39.773Z,102234.55
2019-05-15T23:21:09.233Z,102235.52
2019-05-15T23:23:38.110Z,102231.91
2019-05-15T23:26:06.526Z,102226.23
2019-05-15T23:28:35.056Z,102222.95
2019-05-15T23:31:08.326Z,102221.75
2019-05-15T23:33:42.119Z,102216.58
2019-05-15T23:36:13.178Z,102215.72
2019-05-15T23:38:48.049Z,102215.72
2019-05-15T23:41:18.703Z,102217.52
2019-05-15T23:43:48.256Z,102211.97
2019-05-15T23:46:23.154Z,102210.27
2019-05-15T23:48:55.644Z,102202.53
2019-05-15T23:51:33.517Z,102197.22
2019-05-15T23:54:04.455Z,102190.21
2019-05-15T23:56:38.643Z,102190.48
2019-05-15T23:59:05.534Z,102187.78
